sensor_id;sensor_type;location;lat;lon;timestamp;P1;durP1;ratioP1;P2;durP2;ratioP2
44694;SDS011;32845;59.422;17.930;2023-04-08T00:02:30;2.20;;;1.20;;
44694;SDS011;32845;59.422;17.930;2023-04-08T00:07:01;1.70;;;1.20;;
44694;SDS011;32845;59.422;17.930;2023-04-08T00:11:31;1.75;;;1.02;;
44694;SDS011;32845;59.422;17.930;2023-04-08T00:16:02;3.42;;;1.30;;
44694;SDS011;32845;59.422;17.930;2023-04-08T00:20:33;2.00;;;1.10;;
44694;SDS011;32845;59.422;17.930;2023-04-08T00:25:04;1.50;;;1.05;;
44694;SDS011;32845;59.422;17.930;2023-04-08T00:29:38;3.58;;;1.50;;
44694;SDS011;32845;59.422;17.930;2023-04-08T00:34:09;2.67;;;1.27;;
44694;SDS011;32845;59.422;17.930;2023-04-08T00:38:40;1.27;;;1.02;;
44694;SDS011;32845;59.422;17.930;2023-04-08T00:43:11;1.83;;;1.00;;
44694;SDS011;32845;59.422;17.930;2023-04-08T00:47:41;2.42;;;1.30;;
44694;SDS011;32845;59.422;17.930;2023-04-08T00:52:12;2.50;;;1.30;;
44694;SDS011;32845;59.422;17.930;2023-04-08T00:56:43;2.30;;;1.23;;
44694;SDS011;32845;59.422;17.930;2023-04-08T01:01:17;1.73;;;1.13;;
44694;SDS011;32845;59.422;17.930;2023-04-08T01:11:01;3.30;;;1.20;;
44694;SDS011;32845;59.422;17.930;2023-04-08T01:15:35;2.45;;;1.40;;
44694;SDS011;32845;59.422;17.930;2023-04-08T01:20:08;2.33;;;1.08;;
44694;SDS011;32845;59.422;17.930;2023-04-08T01:24:41;1.63;;;0.88;;
44694;SDS011;32845;59.422;17.930;2023-04-08T01:29:13;1.35;;;1.05;;
44694;SDS011;32845;59.422;17.930;2023-04-08T01:33:45;3.13;;;1.20;;
44694;SDS011;32845;59.422;17.930;2023-04-08T01:38:18;2.63;;;1.30;;
44694;SDS011;32845;59.422;17.930;2023-04-08T01:42:51;1.38;;;0.90;;
44694;SDS011;32845;59.422;17.930;2023-04-08T01:47:24;1.50;;;0.90;;
44694;SDS011;32845;59.422;17.930;2023-04-08T01:51:56;2.30;;;0.95;;
44694;SDS011;32845;59.422;17.930;2023-04-08T01:56:29;2.90;;;1.00;;
44694;SDS011;32845;59.422;17.930;2023-04-08T02:01:05;1.05;;;0.65;;
44694;SDS011;32845;59.422;17.930;2023-04-08T02:05:41;3.85;;;1.20;;
44694;SDS011;32845;59.422;17.930;2023-04-08T02:10:12;2.70;;;0.90;;
44694;SDS011;32845;59.422;17.930;2023-04-08T02:14:42;3.80;;;1.30;;
44694;SDS011;32845;59.422;17.930;2023-04-08T02:19:58;2.00;;;0.95;;
44694;SDS011;32845;59.422;17.930;2023-04-08T02:24:28;1.13;;;1.00;;
44694;SDS011;32845;59.422;17.930;2023-04-08T02:28:59;2.03;;;1.23;;
44694;SDS011;32845;59.422;17.930;2023-04-08T02:33:32;2.75;;;1.00;;
44694;SDS011;32845;59.422;17.930;2023-04-08T02:38:05;2.95;;;0.90;;
44694;SDS011;32845;59.422;17.930;2023-04-08T02:42:37;4.80;;;1.05;;
44694;SDS011;32845;59.422;17.930;2023-04-08T02:47:08;1.73;;;0.82;;
44694;SDS011;32845;59.422;17.930;2023-04-08T02:51:39;2.13;;;1.10;;
44694;SDS011;32845;59.422;17.930;2023-04-08T02:56:10;2.95;;;0.88;;
44694;SDS011;32845;59.422;17.930;2023-04-08T03:00:41;1.30;;;1.00;;
44694;SDS011;32845;59.422;17.930;2023-04-08T03:05:11;2.00;;;0.88;;
44694;SDS011;32845;59.422;17.930;2023-04-08T03:09:42;1.90;;;0.80;;
44694;SDS011;32845;59.422;17.930;2023-04-08T03:14:13;2.28;;;0.90;;
44694;SDS011;32845;59.422;17.930;2023-04-08T03:18:44;1.45;;;0.98;;
44694;SDS011;32845;59.422;17.930;2023-04-08T03:23:14;2.60;;;0.88;;
44694;SDS011;32845;59.422;17.930;2023-04-08T03:27:45;1.50;;;0.90;;
44694;SDS011;32845;59.422;17.930;2023-04-08T03:32:16;1.30;;;0.80;;
44694;SDS011;32845;59.422;17.930;2023-04-08T03:36:46;2.33;;;1.00;;
44694;SDS011;32845;59.422;17.930;2023-04-08T03:41:17;1.90;;;0.85;;
44694;SDS011;32845;59.422;17.930;2023-04-08T03:45:48;2.35;;;0.73;;
44694;SDS011;32845;59.422;17.930;2023-04-08T03:50:18;1.75;;;0.77;;
44694;SDS011;32845;59.422;17.930;2023-04-08T03:54:49;2.10;;;1.00;;
44694;SDS011;32845;59.422;17.930;2023-04-08T03:59:20;1.55;;;0.88;;
44694;SDS011;32845;59.422;17.930;2023-04-08T04:03:51;3.20;;;1.00;;
44694;SDS011;32845;59.422;17.930;2023-04-08T04:08:21;2.90;;;1.00;;
44694;SDS011;32845;59.422;17.930;2023-04-08T04:12:52;1.42;;;0.70;;
44694;SDS011;32845;59.422;17.930;2023-04-08T04:17:23;1.30;;;0.75;;
44694;SDS011;32845;59.422;17.930;2023-04-08T04:21:53;2.47;;;0.82;;
44694;SDS011;32845;59.422;17.930;2023-04-08T04:26:24;4.38;;;1.20;;
44694;SDS011;32845;59.422;17.930;2023-04-08T04:30:55;2.05;;;0.93;;
44694;SDS011;32845;59.422;17.930;2023-04-08T04:35:25;2.45;;;0.88;;
44694;SDS011;32845;59.422;17.930;2023-04-08T04:39:56;2.03;;;1.02;;
44694;SDS011;32845;59.422;17.930;2023-04-08T04:44:27;1.38;;;0.90;;
44694;SDS011;32845;59.422;17.930;2023-04-08T04:48:57;2.67;;;0.93;;
44694;SDS011;32845;59.422;17.930;2023-04-08T04:53:29;2.65;;;1.05;;
44694;SDS011;32845;59.422;17.930;2023-04-08T04:58:00;1.20;;;0.90;;
44694;SDS011;32845;59.422;17.930;2023-04-08T05:02:31;3.13;;;1.00;;
44694;SDS011;32845;59.422;17.930;2023-04-08T05:07:01;2.53;;;1.27;;
44694;SDS011;32845;59.422;17.930;2023-04-08T05:11:32;4.55;;;1.15;;
44694;SDS011;32845;59.422;17.930;2023-04-08T05:16:03;1.42;;;1.00;;
44694;SDS011;32845;59.422;17.930;2023-04-08T05:20:34;1.92;;;0.90;;
44694;SDS011;32845;59.422;17.930;2023-04-08T05:25:04;2.15;;;1.02;;
44694;SDS011;32845;59.422;17.930;2023-04-08T05:29:35;1.00;;;0.90;;
44694;SDS011;32845;59.422;17.930;2023-04-08T05:34:06;2.55;;;1.20;;
44694;SDS011;32845;59.422;17.930;2023-04-08T05:38:37;1.35;;;1.00;;
44694;SDS011;32845;59.422;17.930;2023-04-08T05:43:09;2.35;;;1.52;;
44694;SDS011;32845;59.422;17.930;2023-04-08T05:47:40;1.77;;;1.13;;
44694;SDS011;32845;59.422;17.930;2023-04-08T05:52:10;3.05;;;1.20;;
44694;SDS011;32845;59.422;17.930;2023-04-08T05:56:41;2.45;;;1.15;;
44694;SDS011;32845;59.422;17.930;2023-04-08T06:01:15;2.63;;;1.23;;
44694;SDS011;32845;59.422;17.930;2023-04-08T06:05:45;2.20;;;1.00;;
44694;SDS011;32845;59.422;17.930;2023-04-08T06:10:21;1.83;;;1.17;;
44694;SDS011;32845;59.422;17.930;2023-04-08T06:14:52;1.02;;;0.90;;
44694;SDS011;32845;59.422;17.930;2023-04-08T06:19:26;2.17;;;1.08;;
44694;SDS011;32845;59.422;17.930;2023-04-08T06:23:57;1.48;;;0.95;;
44694;SDS011;32845;59.422;17.930;2023-04-08T06:28:28;2.63;;;1.10;;
44694;SDS011;32845;59.422;17.930;2023-04-08T06:32:59;2.00;;;1.00;;
44694;SDS011;32845;59.422;17.930;2023-04-08T06:37:30;1.63;;;1.00;;
44694;SDS011;32845;59.422;17.930;2023-04-08T06:42:01;2.15;;;1.00;;
44694;SDS011;32845;59.422;17.930;2023-04-08T06:46:31;2.08;;;0.82;;
44694;SDS011;32845;59.422;17.930;2023-04-08T06:51:02;1.20;;;0.80;;
44694;SDS011;32845;59.422;17.930;2023-04-08T06:55:33;1.50;;;1.02;;
44694;SDS011;32845;59.422;17.930;2023-04-08T07:00:03;2.25;;;0.75;;
44694;SDS011;32845;59.422;17.930;2023-04-08T07:04:35;1.27;;;0.68;;
44694;SDS011;32845;59.422;17.930;2023-04-08T07:09:06;1.10;;;0.68;;
44694;SDS011;32845;59.422;17.930;2023-04-08T07:13:38;1.15;;;0.70;;
44694;SDS011;32845;59.422;17.930;2023-04-08T07:18:08;2.75;;;0.98;;
44694;SDS011;32845;59.422;17.930;2023-04-08T07:22:39;5.57;;;0.82;;
44694;SDS011;32845;59.422;17.930;2023-04-08T07:27:10;4.70;;;0.93;;
44694;SDS011;32845;59.422;17.930;2023-04-08T07:31:43;0.95;;;0.70;;
44694;SDS011;32845;59.422;17.930;2023-04-08T07:36:14;2.95;;;0.75;;
44694;SDS011;32845;59.422;17.930;2023-04-08T07:40:47;1.00;;;0.70;;
44694;SDS011;32845;59.422;17.930;2023-04-08T07:45:17;3.92;;;0.88;;
44694;SDS011;32845;59.422;17.930;2023-04-08T07:49:49;0.80;;;0.70;;
44694;SDS011;32845;59.422;17.930;2023-04-08T07:54:19;0.93;;;0.52;;
44694;SDS011;32845;59.422;17.930;2023-04-08T07:58:50;1.73;;;0.73;;
44694;SDS011;32845;59.422;17.930;2023-04-08T08:03:21;5.95;;;0.60;;
44694;SDS011;32845;59.422;17.930;2023-04-08T08:07:52;0.80;;;0.65;;
44694;SDS011;32845;59.422;17.930;2023-04-08T08:12:22;0.95;;;0.63;;
44694;SDS011;32845;59.422;17.930;2023-04-08T08:16:53;1.10;;;0.68;;
44694;SDS011;32845;59.422;17.930;2023-04-08T08:21:24;3.05;;;0.70;;
44694;SDS011;32845;59.422;17.930;2023-04-08T08:25:59;1.13;;;0.70;;
44694;SDS011;32845;59.422;17.930;2023-04-08T08:30:30;0.93;;;0.73;;
44694;SDS011;32845;59.422;17.930;2023-04-08T08:35:01;1.58;;;0.60;;
44694;SDS011;32845;59.422;17.930;2023-04-08T08:39:31;0.75;;;0.50;;
44694;SDS011;32845;59.422;17.930;2023-04-08T08:44:05;1.10;;;0.50;;
44694;SDS011;32845;59.422;17.930;2023-04-08T08:48:36;2.63;;;0.50;;
44694;SDS011;32845;59.422;17.930;2023-04-08T08:53:10;1.85;;;0.47;;
44694;SDS011;32845;59.422;17.930;2023-04-08T08:57:41;4.07;;;0.60;;
44694;SDS011;32845;59.422;17.930;2023-04-08T09:07:08;1.98;;;0.60;;
44694;SDS011;32845;59.422;17.930;2023-04-08T09:11:41;1.10;;;0.65;;
44694;SDS011;32845;59.422;17.930;2023-04-08T09:16:16;0.70;;;0.50;;
44694;SDS011;32845;59.422;17.930;2023-04-08T09:20:51;2.00;;;0.60;;
44694;SDS011;32845;59.422;17.930;2023-04-08T09:25:23;0.70;;;0.38;;
44694;SDS011;32845;59.422;17.930;2023-04-08T09:30:14;2.05;;;0.68;;
44694;SDS011;32845;59.422;17.930;2023-04-08T09:34:45;1.70;;;0.65;;
44694;SDS011;32845;59.422;17.930;2023-04-08T09:39:16;0.50;;;0.35;;
44694;SDS011;32845;59.422;17.930;2023-04-08T09:43:47;2.00;;;0.60;;
44694;SDS011;32845;59.422;17.930;2023-04-08T09:48:23;1.05;;;0.40;;
44694;SDS011;32845;59.422;17.930;2023-04-08T09:53:00;3.28;;;0.40;;
44694;SDS011;32845;59.422;17.930;2023-04-08T10:02:24;1.48;;;0.60;;
44694;SDS011;32845;59.422;17.930;2023-04-08T10:07:02;0.60;;;0.43;;
44694;SDS011;32845;59.422;17.930;2023-04-08T10:11:35;6.60;;;0.50;;
44694;SDS011;32845;59.422;17.930;2023-04-08T10:20:51;1.08;;;0.38;;
44694;SDS011;32845;59.422;17.930;2023-04-08T10:29:55;0.90;;;0.47;;
44694;SDS011;32845;59.422;17.930;2023-04-08T10:34:26;0.47;;;0.40;;
44694;SDS011;32845;59.422;17.930;2023-04-08T10:38:57;2.60;;;0.30;;
44694;SDS011;32845;59.422;17.930;2023-04-08T10:43:34;0.70;;;0.50;;
44694;SDS011;32845;59.422;17.930;2023-04-08T10:52:51;1.38;;;0.40;;
44694;SDS011;32845;59.422;17.930;2023-04-08T10:57:23;0.63;;;0.43;;
44694;SDS011;32845;59.422;17.930;2023-04-08T11:01:54;1.70;;;0.40;;
44694;SDS011;32845;59.422;17.930;2023-04-08T11:06:26;2.08;;;0.60;;
44694;SDS011;32845;59.422;17.930;2023-04-08T11:10:58;1.10;;;0.40;;
44694;SDS011;32845;59.422;17.930;2023-04-08T11:15:34;0.95;;;0.40;;
44694;SDS011;32845;59.422;17.930;2023-04-08T11:20:06;4.68;;;0.20;;
44694;SDS011;32845;59.422;17.930;2023-04-08T11:24:38;1.05;;;0.30;;
44694;SDS011;32845;59.422;17.930;2023-04-08T11:29:12;1.17;;;0.40;;
44694;SDS011;32845;59.422;17.930;2023-04-08T11:33:47;1.80;;;0.30;;
44694;SDS011;32845;59.422;17.930;2023-04-08T11:38:21;1.48;;;0.40;;
44694;SDS011;32845;59.422;17.930;2023-04-08T11:42:52;0.30;;;0.30;;
44694;SDS011;32845;59.422;17.930;2023-04-08T11:47:32;1.17;;;0.47;;
44694;SDS011;32845;59.422;17.930;2023-04-08T11:52:04;0.82;;;0.57;;
44694;SDS011;32845;59.422;17.930;2023-04-08T11:56:44;0.35;;;0.30;;
44694;SDS011;32845;59.422;17.930;2023-04-08T12:01:18;0.50;;;0.35;;
44694;SDS011;32845;59.422;17.930;2023-04-08T12:05:49;0.50;;;0.30;;
44694;SDS011;32845;59.422;17.930;2023-04-08T12:10:21;1.77;;;0.50;;
44694;SDS011;32845;59.422;17.930;2023-04-08T12:14:51;0.40;;;0.30;;
44694;SDS011;32845;59.422;17.930;2023-04-08T12:19:22;0.73;;;0.30;;
44694;SDS011;32845;59.422;17.930;2023-04-08T12:23:53;0.75;;;0.47;;
44694;SDS011;32845;59.422;17.930;2023-04-08T12:28:24;1.20;;;0.40;;
44694;SDS011;32845;59.422;17.930;2023-04-08T12:32:54;0.85;;;0.50;;
44694;SDS011;32845;59.422;17.930;2023-04-08T12:37:26;0.98;;;0.70;;
44694;SDS011;32845;59.422;17.930;2023-04-08T12:41:57;0.55;;;0.30;;
44694;SDS011;32845;59.422;17.930;2023-04-08T12:46:28;2.17;;;0.43;;
44694;SDS011;32845;59.422;17.930;2023-04-08T12:50:59;0.82;;;0.50;;
44694;SDS011;32845;59.422;17.930;2023-04-08T12:55:30;1.27;;;0.80;;
44694;SDS011;32845;59.422;17.930;2023-04-08T13:00:00;2.35;;;0.63;;
44694;SDS011;32845;59.422;17.930;2023-04-08T13:04:32;1.33;;;0.57;;
44694;SDS011;32845;59.422;17.930;2023-04-08T13:09:02;0.30;;;0.30;;
44694;SDS011;32845;59.422;17.930;2023-04-08T13:13:33;0.40;;;0.30;;
44694;SDS011;32845;59.422;17.930;2023-04-08T13:18:04;1.00;;;0.43;;
44694;SDS011;32845;59.422;17.930;2023-04-08T13:22:35;5.90;;;0.57;;
44694;SDS011;32845;59.422;17.930;2023-04-08T13:27:05;0.70;;;0.40;;
44694;SDS011;32845;59.422;17.930;2023-04-08T13:31:36;1.20;;;0.38;;
44694;SDS011;32845;59.422;17.930;2023-04-08T13:36:07;1.88;;;0.60;;
44694;SDS011;32845;59.422;17.930;2023-04-08T13:40:38;0.60;;;0.40;;
44694;SDS011;32845;59.422;17.930;2023-04-08T13:45:09;2.38;;;1.15;;
44694;SDS011;32845;59.422;17.930;2023-04-08T13:49:40;0.40;;;0.28;;
44694;SDS011;32845;59.422;17.930;2023-04-08T13:54:11;0.20;;;0.20;;
44694;SDS011;32845;59.422;17.930;2023-04-08T13:58:41;0.75;;;0.40;;
44694;SDS011;32845;59.422;17.930;2023-04-08T14:03:12;2.92;;;0.40;;
44694;SDS011;32845;59.422;17.930;2023-04-08T14:07:43;0.47;;;0.28;;
44694;SDS011;32845;59.422;17.930;2023-04-08T14:12:13;0.68;;;0.40;;
44694;SDS011;32845;59.422;17.930;2023-04-08T14:16:44;0.20;;;0.20;;
44694;SDS011;32845;59.422;17.930;2023-04-08T14:21:15;1.10;;;0.40;;
44694;SDS011;32845;59.422;17.930;2023-04-08T14:25:47;0.35;;;0.30;;
44694;SDS011;32845;59.422;17.930;2023-04-08T14:30:17;0.30;;;0.30;;
44694;SDS011;32845;59.422;17.930;2023-04-08T14:34:48;8.77;;;0.57;;
44694;SDS011;32845;59.422;17.930;2023-04-08T14:39:19;2.85;;;1.63;;
44694;SDS011;32845;59.422;17.930;2023-04-08T14:43:49;0.50;;;0.30;;
44694;SDS011;32845;59.422;17.930;2023-04-08T14:48:20;0.30;;;0.20;;
44694;SDS011;32845;59.422;17.930;2023-04-08T14:52:51;5.43;;;0.60;;
44694;SDS011;32845;59.422;17.930;2023-04-08T14:57:21;1.27;;;0.30;;
44694;SDS011;32845;59.422;17.930;2023-04-08T15:01:52;0.65;;;0.30;;
44694;SDS011;32845;59.422;17.930;2023-04-08T15:06:23;0.60;;;0.30;;
44694;SDS011;32845;59.422;17.930;2023-04-08T15:10:55;0.77;;;0.40;;
44694;SDS011;32845;59.422;17.930;2023-04-08T15:15:26;1.23;;;0.60;;
44694;SDS011;32845;59.422;17.930;2023-04-08T15:19:56;0.90;;;0.40;;
44694;SDS011;32845;59.422;17.930;2023-04-08T15:24:27;4.75;;;0.60;;
44694;SDS011;32845;59.422;17.930;2023-04-08T15:28:58;3.50;;;0.50;;
44694;SDS011;32845;59.422;17.930;2023-04-08T15:33:29;1.90;;;0.40;;
44694;SDS011;32845;59.422;17.930;2023-04-08T15:37:59;1.83;;;0.40;;
44694;SDS011;32845;59.422;17.930;2023-04-08T15:42:30;1.67;;;0.40;;
44694;SDS011;32845;59.422;17.930;2023-04-08T15:47:01;3.40;;;0.50;;
44694;SDS011;32845;59.422;17.930;2023-04-08T15:51:32;0.82;;;0.40;;
44694;SDS011;32845;59.422;17.930;2023-04-08T15:56:03;1.05;;;0.50;;
44694;SDS011;32845;59.422;17.930;2023-04-08T16:00:34;0.40;;;0.30;;
44694;SDS011;32845;59.422;17.930;2023-04-08T16:05:04;4.90;;;0.30;;
44694;SDS011;32845;59.422;17.930;2023-04-08T16:09:40;0.32;;;0.30;;
44694;SDS011;32845;59.422;17.930;2023-04-08T16:14:12;0.63;;;0.50;;
44694;SDS011;32845;59.422;17.930;2023-04-08T16:18:43;1.35;;;0.40;;
44694;SDS011;32845;59.422;17.930;2023-04-08T16:23:14;1.25;;;0.47;;
44694;SDS011;32845;59.422;17.930;2023-04-08T16:27:46;0.98;;;0.40;;
44694;SDS011;32845;59.422;17.930;2023-04-08T16:32:17;0.88;;;0.50;;
44694;SDS011;32845;59.422;17.930;2023-04-08T16:36:48;5.22;;;0.63;;
44694;SDS011;32845;59.422;17.930;2023-04-08T16:41:19;0.68;;;0.50;;
44694;SDS011;32845;59.422;17.930;2023-04-08T16:45:50;1.38;;;0.60;;
44694;SDS011;32845;59.422;17.930;2023-04-08T16:50:21;0.80;;;0.50;;
44694;SDS011;32845;59.422;17.930;2023-04-08T16:54:53;1.83;;;0.43;;
44694;SDS011;32845;59.422;17.930;2023-04-08T16:59:23;1.25;;;0.43;;
44694;SDS011;32845;59.422;17.930;2023-04-08T17:03:56;0.85;;;0.52;;
44694;SDS011;32845;59.422;17.930;2023-04-08T17:08:26;4.00;;;0.65;;
44694;SDS011;32845;59.422;17.930;2023-04-08T17:12:57;1.40;;;0.60;;
44694;SDS011;32845;59.422;17.930;2023-04-08T17:17:28;4.45;;;0.93;;
44694;SDS011;32845;59.422;17.930;2023-04-08T17:21:58;3.83;;;0.80;;
44694;SDS011;32845;59.422;17.930;2023-04-08T17:26:29;5.13;;;1.35;;
44694;SDS011;32845;59.422;17.930;2023-04-08T17:31:00;5.82;;;1.75;;
44694;SDS011;32845;59.422;17.930;2023-04-08T17:35:31;7.88;;;3.22;;
44694;SDS011;32845;59.422;17.930;2023-04-08T17:40:02;7.45;;;3.08;;
44694;SDS011;32845;59.422;17.930;2023-04-08T17:44:33;9.30;;;2.80;;
44694;SDS011;32845;59.422;17.930;2023-04-08T17:49:03;5.18;;;2.25;;
44694;SDS011;32845;59.422;17.930;2023-04-08T17:53:34;7.07;;;2.67;;
44694;SDS011;32845;59.422;17.930;2023-04-08T17:58:05;17.65;;;2.83;;
44694;SDS011;32845;59.422;17.930;2023-04-08T18:02:36;6.65;;;2.50;;
44694;SDS011;32845;59.422;17.930;2023-04-08T18:07:07;11.30;;;2.40;;
44694;SDS011;32845;59.422;17.930;2023-04-08T18:11:37;7.75;;;1.77;;
44694;SDS011;32845;59.422;17.930;2023-04-08T18:16:17;3.90;;;1.90;;
44694;SDS011;32845;59.422;17.930;2023-04-08T18:20:49;4.93;;;1.73;;
44694;SDS011;32845;59.422;17.930;2023-04-08T18:25:20;11.48;;;2.05;;
44694;SDS011;32845;59.422;17.930;2023-04-08T18:29:52;6.25;;;2.13;;
44694;SDS011;32845;59.422;17.930;2023-04-08T18:34:23;12.38;;;2.72;;
44694;SDS011;32845;59.422;17.930;2023-04-08T18:38:54;8.60;;;1.48;;
44694;SDS011;32845;59.422;17.930;2023-04-08T18:43:25;2.30;;;1.30;;
44694;SDS011;32845;59.422;17.930;2023-04-08T18:47:56;18.50;;;1.90;;
44694;SDS011;32845;59.422;17.930;2023-04-08T18:52:27;7.70;;;1.83;;
44694;SDS011;32845;59.422;17.930;2023-04-08T18:56:58;6.15;;;1.42;;
44694;SDS011;32845;59.422;17.930;2023-04-08T19:01:29;5.22;;;1.83;;
44694;SDS011;32845;59.422;17.930;2023-04-08T19:06:07;8.40;;;2.30;;
44694;SDS011;32845;59.422;17.930;2023-04-08T19:10:39;11.02;;;1.73;;
44694;SDS011;32845;59.422;17.930;2023-04-08T19:15:10;4.25;;;1.40;;
44694;SDS011;32845;59.422;17.930;2023-04-08T19:19:41;4.53;;;1.63;;
44694;SDS011;32845;59.422;17.930;2023-04-08T19:24:12;6.53;;;2.17;;
44694;SDS011;32845;59.422;17.930;2023-04-08T19:28:42;9.90;;;2.40;;
44694;SDS011;32845;59.422;17.930;2023-04-08T19:33:13;24.35;;;10.90;;
44694;SDS011;32845;59.422;17.930;2023-04-08T19:37:44;30.02;;;10.77;;
44694;SDS011;32845;59.422;17.930;2023-04-08T19:42:15;17.20;;;7.85;;
44694;SDS011;32845;59.422;17.930;2023-04-08T19:46:46;21.20;;;7.45;;
44694;SDS011;32845;59.422;17.930;2023-04-08T19:51:17;13.70;;;7.78;;
44694;SDS011;32845;59.422;17.930;2023-04-08T19:55:57;17.42;;;6.43;;
44694;SDS011;32845;59.422;17.930;2023-04-08T20:00:29;14.82;;;6.53;;
44694;SDS011;32845;59.422;17.930;2023-04-08T20:05:00;10.85;;;5.38;;
44694;SDS011;32845;59.422;17.930;2023-04-08T20:09:31;35.25;;;11.98;;
44694;SDS011;32845;59.422;17.930;2023-04-08T20:14:02;27.23;;;9.30;;
44694;SDS011;32845;59.422;17.930;2023-04-08T20:18:33;15.07;;;7.05;;
44694;SDS011;32845;59.422;17.930;2023-04-08T20:23:06;13.77;;;5.40;;
44694;SDS011;32845;59.422;17.930;2023-04-08T20:27:37;16.02;;;4.70;;
44694;SDS011;32845;59.422;17.930;2023-04-08T20:32:08;17.20;;;3.80;;
44694;SDS011;32845;59.422;17.930;2023-04-08T20:36:39;13.25;;;4.30;;
44694;SDS011;32845;59.422;17.930;2023-04-08T20:41:10;20.20;;;4.50;;
44694;SDS011;32845;59.422;17.930;2023-04-08T20:45:41;11.27;;;3.95;;
44694;SDS011;32845;59.422;17.930;2023-04-08T20:50:12;13.88;;;3.80;;
44694;SDS011;32845;59.422;17.930;2023-04-08T20:54:42;15.70;;;2.92;;
44694;SDS011;32845;59.422;17.930;2023-04-08T20:59:13;16.50;;;4.20;;
44694;SDS011;32845;59.422;17.930;2023-04-08T21:03:44;16.25;;;3.92;;
44694;SDS011;32845;59.422;17.930;2023-04-08T21:08:15;19.25;;;4.25;;
44694;SDS011;32845;59.422;17.930;2023-04-08T21:12:45;35.05;;;4.72;;
44694;SDS011;32845;59.422;17.930;2023-04-08T21:17:17;27.45;;;7.20;;
44694;SDS011;32845;59.422;17.930;2023-04-08T21:21:47;17.85;;;3.95;;
44694;SDS011;32845;59.422;17.930;2023-04-08T21:26:18;13.90;;;3.47;;
44694;SDS011;32845;59.422;17.930;2023-04-08T21:30:50;22.70;;;3.38;;
44694;SDS011;32845;59.422;17.930;2023-04-08T21:35:21;22.08;;;2.97;;
44694;SDS011;32845;59.422;17.930;2023-04-08T21:39:52;12.40;;;3.25;;
44694;SDS011;32845;59.422;17.930;2023-04-08T21:44:23;21.52;;;3.22;;
44694;SDS011;32845;59.422;17.930;2023-04-08T21:48:54;24.02;;;3.47;;
44694;SDS011;32845;59.422;17.930;2023-04-08T21:53:25;21.15;;;2.97;;
44694;SDS011;32845;59.422;17.930;2023-04-08T21:57:56;15.40;;;3.10;;
44694;SDS011;32845;59.422;17.930;2023-04-08T22:02:26;15.77;;;2.80;;
44694;SDS011;32845;59.422;17.930;2023-04-08T22:06:57;14.13;;;2.55;;
44694;SDS011;32845;59.422;17.930;2023-04-08T22:11:28;13.45;;;2.47;;
44694;SDS011;32845;59.422;17.930;2023-04-08T22:15:58;15.75;;;2.50;;
44694;SDS011;32845;59.422;17.930;2023-04-08T22:20:29;19.80;;;2.60;;
44694;SDS011;32845;59.422;17.930;2023-04-08T22:25:00;13.07;;;3.08;;
44694;SDS011;32845;59.422;17.930;2023-04-08T22:29:31;12.70;;;2.72;;
44694;SDS011;32845;59.422;17.930;2023-04-08T22:34:02;18.80;;;3.72;;
44694;SDS011;32845;59.422;17.930;2023-04-08T22:38:33;13.20;;;3.15;;
44694;SDS011;32845;59.422;17.930;2023-04-08T22:43:04;25.75;;;2.97;;
44694;SDS011;32845;59.422;17.930;2023-04-08T22:47:35;19.33;;;3.08;;
44694;SDS011;32845;59.422;17.930;2023-04-08T22:52:06;13.05;;;2.72;;
44694;SDS011;32845;59.422;17.930;2023-04-08T22:56:37;20.38;;;2.92;;
44694;SDS011;32845;59.422;17.930;2023-04-08T23:01:14;19.83;;;3.67;;
44694;SDS011;32845;59.422;17.930;2023-04-08T23:05:46;18.53;;;2.70;;
44694;SDS011;32845;59.422;17.930;2023-04-08T23:10:17;10.70;;;2.90;;
44694;SDS011;32845;59.422;17.930;2023-04-08T23:14:48;21.10;;;2.22;;
44694;SDS011;32845;59.422;17.930;2023-04-08T23:19:18;10.93;;;2.58;;
44694;SDS011;32845;59.422;17.930;2023-04-08T23:23:49;16.70;;;2.47;;
44694;SDS011;32845;59.422;17.930;2023-04-08T23:28:20;26.40;;;3.13;;
44694;SDS011;32845;59.422;17.930;2023-04-08T23:32:51;6.40;;;2.20;;
44694;SDS011;32845;59.422;17.930;2023-04-08T23:37:21;14.88;;;2.22;;
44694;SDS011;32845;59.422;17.930;2023-04-08T23:41:53;8.50;;;1.80;;
44694;SDS011;32845;59.422;17.930;2023-04-08T23:46:25;23.92;;;2.97;;
44694;SDS011;32845;59.422;17.930;2023-04-08T23:50:56;12.80;;;2.33;;
44694;SDS011;32845;59.422;17.930;2023-04-08T23:55:27;38.58;;;7.32;;
44694;SDS011;32845;59.422;17.930;2023-04-08T23:59:57;12.27;;;2.42;;
